createdAt,value
2022-08-21T00:00:45.985Z,9.63
2022-08-21T00:03:17.888Z,8.90
2022-08-21T00:05:50.464Z,11.13
2022-08-21T00:08:19.206Z,14.77
2022-08-21T00:10:48.280Z,10.25
2022-08-21T00:13:19.212Z,13.93
2022-08-21T00:15:48.379Z,13.07
2022-08-21T00:18:17.166Z,12.57
2022-08-21T00:20:46.820Z,7.78
2022-08-21T00:23:15.959Z,12.35
2022-08-21T00:25:47.617Z,10.32
2022-08-21T00:28:17.677Z,17.40
2022-08-21T00:30:46.888Z,13.27
2022-08-21T00:33:15.843Z,12.23
2022-08-21T00:35:50.519Z,7.78
2022-08-21T00:38:18.918Z,14.45
2022-08-21T00:40:49.407Z,11.32
2022-08-21T00:43:26.034Z,10.10
2022-08-21T00:45:55.052Z,7.40
2022-08-21T00:48:24.313Z,13.70
2022-08-21T00:50:57.903Z,14.63
2022-08-21T00:53:27.221Z,11.55
2022-08-21T00:55:56.777Z,8.60
2022-08-21T00:58:29.914Z,5.65
2022-08-21T01:00:59.187Z,9.25
2022-08-21T01:03:27.764Z,8.88
2022-08-21T01:05:56.695Z,10.52
2022-08-21T01:08:25.400Z,9.25
2022-08-21T01:10:55.261Z,9.63
2022-08-21T01:13:25.850Z,11.38
2022-08-21T01:15:57.571Z,10.10
2022-08-21T01:18:28.406Z,9.43
2022-08-21T01:21:12.626Z,10.20
2022-08-21T01:23:45.133Z,12.82
2022-08-21T01:26:15.149Z,12.77
2022-08-21T01:28:50.299Z,10.10
2022-08-21T01:31:26.136Z,6.28
2022-08-21T01:34:06.191Z,7.97
2022-08-21T01:36:40.821Z,10.15
2022-08-21T01:39:08.364Z,12.38
2022-08-21T01:41:36.742Z,14.65
2022-08-21T01:44:14.063Z,10.27
2022-08-21T01:46:46.821Z,12.90
2022-08-21T01:49:25.906Z,6.53
2022-08-21T01:52:12.832Z,14.85
2022-08-21T01:54:42.063Z,13.85
2022-08-21T01:57:17.032Z,8.80
2022-08-21T01:59:46.129Z,7.07
2022-08-21T02:02:14.600Z,7.80
2022-08-21T02:04:42.857Z,13.13
2022-08-21T02:07:18.071Z,12.10
2022-08-21T02:09:46.388Z,13.85
2022-08-21T02:12:15.251Z,11.13
2022-08-21T02:14:52.435Z,10.73
2022-08-21T02:17:27.814Z,13.43
2022-08-21T02:19:56.200Z,11.65
2022-08-21T02:22:48.374Z,11.82
2022-08-21T02:25:15.045Z,11.82
2022-08-21T02:27:48.774Z,9.48
2022-08-21T02:30:26.650Z,9.45
2022-08-21T02:32:54.982Z,12.68
2022-08-21T02:35:24.354Z,11.43
2022-08-21T02:37:56.561Z,10.48
2022-08-21T02:40:28.115Z,11.80
2022-08-21T02:42:59.516Z,13.32
2022-08-21T02:45:29.732Z,9.68
2022-08-21T02:48:01.261Z,10.18
2022-08-21T02:50:35.136Z,13.10
2022-08-21T02:53:17.744Z,17.15
2022-08-21T02:55:48.631Z,20.35
2022-08-21T02:58:19.325Z,15.65
2022-08-21T03:00:47.961Z,10.05
2022-08-21T03:03:16.207Z,11.93
2022-08-21T03:05:46.029Z,17.65
2022-08-21T03:08:19.861Z,11.32
2022-08-21T03:10:51.751Z,16.23
2022-08-21T03:13:22.076Z,9.43
2022-08-21T03:15:50.876Z,7.65
2022-08-21T03:18:20.015Z,8.35
2022-08-21T03:20:49.046Z,15.10
2022-08-21T03:23:20.091Z,6.35
2022-08-21T03:25:52.103Z,13.63
2022-08-21T03:28:24.984Z,12.90
2022-08-21T03:30:54.427Z,12.98
2022-08-21T03:33:31.879Z,8.80
2022-08-21T03:36:03.239Z,16.00
2022-08-21T03:38:34.870Z,15.43
2022-08-21T03:41:16.497Z,10.48
2022-08-21T03:43:44.895Z,16.23
2022-08-21T03:46:16.236Z,22.88
2022-08-21T03:48:44.703Z,18.73
2022-08-21T03:51:13.230Z,12.32
2022-08-21T03:53:43.092Z,11.57
2022-08-21T03:56:17.918Z,11.75
2022-08-21T03:58:47.172Z,12.13
2022-08-21T04:01:16.048Z,17.20
2022-08-21T04:03:44.465Z,10.32
2022-08-21T04:06:13.088Z,17.45
2022-08-21T04:08:48.439Z,13.80
2022-08-21T04:11:17.377Z,12.45
2022-08-21T04:13:45.606Z,10.60
2022-08-21T04:16:14.152Z,13.45
2022-08-21T04:18:43.914Z,8.43
2022-08-21T04:21:13.687Z,14.82
2022-08-21T04:23:42.449Z,10.10
2022-08-21T04:26:12.272Z,13.07
2022-08-21T04:28:40.699Z,10.77
2022-08-21T04:31:09.145Z,10.15
2022-08-21T04:33:37.553Z,18.80
2022-08-21T04:36:07.890Z,10.07
2022-08-21T04:38:37.501Z,14.07
2022-08-21T04:41:07.868Z,10.82
2022-08-21T04:43:37.888Z,13.93
2022-08-21T04:46:06.731Z,12.55
2022-08-21T04:48:35.347Z,16.10
2022-08-21T04:51:10.125Z,18.83
2022-08-21T04:53:40.782Z,12.93
2022-08-21T04:56:12.522Z,18.15
2022-08-21T04:59:00.052Z,7.93
2022-08-21T05:01:31.314Z,14.48
2022-08-21T05:04:02.611Z,14.18
2022-08-21T05:06:32.839Z,13.13
2022-08-21T05:09:02.161Z,13.98
2022-08-21T05:11:32.194Z,16.98
2022-08-21T05:14:01.895Z,12.63
2022-08-21T05:16:36.904Z,11.80
2022-08-21T05:19:06.426Z,14.85
2022-08-21T05:21:34.644Z,8.07
2022-08-21T05:24:03.076Z,18.15
2022-08-21T05:26:32.084Z,9.15
2022-08-21T05:29:02.225Z,10.25
2022-08-21T05:31:30.800Z,16.60
2022-08-21T05:34:01.709Z,17.27
2022-08-21T05:36:31.730Z,11.55
2022-08-21T05:39:00.271Z,13.10
2022-08-21T05:41:28.560Z,8.95
2022-08-21T05:43:56.987Z,11.75
2022-08-21T05:46:27.077Z,13.55
2022-08-21T05:48:55.478Z,14.32
2022-08-21T05:51:23.877Z,16.17
2022-08-21T05:53:52.272Z,8.90
2022-08-21T05:56:20.664Z,11.95
2022-08-21T05:58:51.961Z,9.52
2022-08-21T06:01:20.441Z,9.60
2022-08-21T06:03:51.057Z,13.35
2022-08-21T06:06:19.914Z,14.27
2022-08-21T06:08:48.154Z,12.25
2022-08-21T06:11:16.367Z,13.88
2022-08-21T06:13:44.517Z,12.65
2022-08-21T06:16:15.698Z,16.42
2022-08-21T06:18:46.035Z,11.23
2022-08-21T06:21:16.358Z,12.82
2022-08-21T06:23:45.066Z,11.93
2022-08-21T06:26:16.929Z,10.50
2022-08-21T06:28:45.564Z,11.15
2022-08-21T06:31:16.984Z,11.70
2022-08-21T06:33:45.397Z,13.82
2022-08-21T06:36:18.803Z,11.35
2022-08-21T06:38:54.850Z,10.43
2022-08-21T06:41:27.144Z,20.85
2022-08-21T06:43:56.763Z,12.27
2022-08-21T06:46:25.376Z,15.43
2022-08-21T06:48:53.786Z,12.82
2022-08-21T06:51:32.022Z,12.40
2022-08-21T06:54:08.409Z,17.30
2022-08-21T06:56:39.050Z,9.77
2022-08-21T06:59:08.198Z,14.20
2022-08-21T07:01:37.617Z,14.43
2022-08-21T07:04:06.140Z,13.35
2022-08-21T07:06:36.036Z,11.95
2022-08-21T07:09:13.888Z,12.13
2022-08-21T07:11:44.124Z,13.73
2022-08-21T07:14:20.203Z,10.57
2022-08-21T07:16:49.388Z,16.20
2022-08-21T07:19:44.762Z,17.02
2022-08-21T07:22:08.691Z,9.38
2022-08-21T07:24:37.388Z,12.43
2022-08-21T07:29:52.682Z,10.40
2022-08-21T07:32:24.099Z,13.65
2022-08-21T07:34:52.600Z,15.18
2022-08-21T07:37:22.428Z,11.93
2022-08-21T07:39:58.618Z,7.68
2022-08-21T07:42:43.837Z,9.70
2022-08-21T07:45:13.707Z,9.57
2022-08-21T07:47:44.036Z,8.60
2022-08-21T07:50:14.880Z,14.27
2022-08-21T07:53:00.934Z,13.90
2022-08-21T07:55:40.465Z,8.93
2022-08-21T07:58:30.281Z,8.02
2022-08-21T08:01:02.908Z,16.73
2022-08-21T08:03:32.759Z,7.60
2022-08-21T08:06:30.505Z,11.43
2022-08-21T08:12:05.339Z,11.35
2022-08-21T08:14:39.739Z,13.77
2022-08-21T08:17:09.778Z,11.80
2022-08-21T08:19:39.956Z,8.45
2022-08-21T08:22:15.765Z,13.88
2022-08-21T08:24:47.760Z,10.88
2022-08-21T08:27:19.826Z,19.20
2022-08-21T08:29:53.413Z,9.07
2022-08-21T08:32:23.910Z,10.25
2022-08-21T08:34:53.900Z,10.10
2022-08-21T08:37:24.033Z,9.98
2022-08-21T08:40:11.214Z,10.30
2022-08-21T08:42:43.463Z,6.57
2022-08-21T08:45:17.538Z,11.07
2022-08-21T08:47:49.437Z,12.02
2022-08-21T08:50:24.577Z,10.95
2022-08-21T08:53:00.109Z,7.03
2022-08-21T08:55:39.480Z,8.10
2022-08-21T08:58:11.258Z,8.48
2022-08-21T09:00:48.337Z,6.05
2022-08-21T09:03:19.355Z,9.40
2022-08-21T09:05:50.722Z,10.35
2022-08-21T09:08:50.922Z,9.10
2022-08-21T09:11:30.480Z,8.68
2022-08-21T09:14:10.192Z,8.85
2022-08-21T09:17:03.957Z,11.45
2022-08-21T09:19:50.074Z,5.53
2022-08-21T09:22:35.476Z,7.82
2022-08-21T09:25:12.282Z,9.25
2022-08-21T09:27:53.983Z,9.27
2022-08-21T09:31:23.435Z,7.68
2022-08-21T09:34:51.708Z,5.97
2022-08-21T09:44:57.575Z,6.45
2022-08-21T09:48:48.269Z,7.47
2022-08-21T09:59:09.367Z,7.88
2022-08-21T10:03:13.745Z,8.57
2022-08-21T10:06:35.610Z,5.10
2022-08-21T10:09:28.539Z,5.43
2022-08-21T10:12:55.881Z,8.25
2022-08-21T10:16:23.215Z,6.47
2022-08-21T10:19:32.692Z,6.68
2022-08-21T10:25:57.205Z,7.78
2022-08-21T10:29:05.270Z,8.05
2022-08-21T10:32:31.798Z,10.55
2022-08-21T10:35:38.897Z,6.20
2022-08-21T10:39:12.117Z,4.10
2022-08-21T10:42:47.870Z,5.50
2022-08-21T10:46:05.328Z,4.57
2022-08-21T10:49:04.992Z,8.35
2022-08-21T10:59:22.887Z,4.63
2022-08-21T11:01:49.920Z,8.07
2022-08-21T11:07:57.764Z,9.55
2022-08-21T11:11:08.819Z,8.40
2022-08-21T11:14:08.478Z,4.32
2022-08-21T11:17:25.776Z,5.32
2022-08-21T11:20:32.641Z,7.13
2022-08-21T11:23:26.810Z,4.70
2022-08-21T11:26:08.930Z,4.90
2022-08-21T11:28:43.975Z,5.25
2022-08-21T11:31:40.060Z,7.13
2022-08-21T11:35:01.894Z,5.45
2022-08-21T11:37:59.948Z,3.88
2022-08-21T11:41:16.343Z,4.90
2022-08-21T11:44:14.175Z,8.18
2022-08-21T11:47:27.159Z,6.93
2022-08-21T11:57:39.344Z,6.72
2022-08-21T12:00:42.182Z,5.65
2022-08-21T12:03:34.996Z,8.88
2022-08-21T12:06:31.548Z,5.40
2022-08-21T12:13:52.514Z,5.78
2022-08-21T12:27:48.109Z,4.95
2022-08-21T12:30:35.169Z,3.95
2022-08-21T12:33:05.989Z,5.75
2022-08-21T12:35:39.439Z,3.97
2022-08-21T12:38:17.993Z,5.57
2022-08-21T12:40:54.428Z,3.70
2022-08-21T12:43:32.488Z,5.75
2022-08-21T12:46:04.363Z,3.42
2022-08-21T12:48:37.589Z,5.63
2022-08-21T12:51:12.435Z,5.78
2022-08-21T12:53:46.651Z,6.75
2022-08-21T12:56:23.413Z,4.40
2022-08-21T12:58:55.778Z,3.25
2022-08-21T13:01:29.989Z,2.85
2022-08-21T13:04:06.050Z,5.22
2022-08-21T13:06:40.482Z,5.43
2022-08-21T13:09:12.642Z,5.45
2022-08-21T13:11:43.939Z,5.43
2022-08-21T13:14:27.267Z,3.67
2022-08-21T13:17:00.179Z,2.80
2022-08-21T13:19:30.552Z,3.05
2022-08-21T13:21:58.915Z,8.48
2022-08-21T13:24:44.195Z,2.42
2022-08-21T13:27:21.578Z,3.58
2022-08-21T13:29:54.147Z,3.53
2022-08-21T13:32:28.635Z,5.38
2022-08-21T13:34:56.990Z,3.05
2022-08-21T13:37:27.306Z,6.45
2022-08-21T13:39:55.477Z,6.03
2022-08-21T13:42:25.175Z,2.47
2022-08-21T13:44:55.249Z,4.35
2022-08-21T13:47:25.426Z,4.03
2022-08-21T13:49:59.119Z,2.00
2022-08-21T13:52:28.739Z,4.28
2022-08-21T13:54:59.307Z,3.42
2022-08-21T13:57:30.885Z,4.47
2022-08-21T14:00:19.849Z,5.30
2022-08-21T14:02:54.206Z,4.43
2022-08-21T14:05:24.354Z,3.50
2022-08-21T14:07:59.906Z,2.05
2022-08-21T14:10:31.475Z,4.35
2022-08-21T14:13:03.411Z,3.88
2022-08-21T14:15:35.343Z,2.67
2022-08-21T14:18:17.044Z,3.65
2022-08-21T14:20:46.030Z,1.70
2022-08-21T14:23:25.075Z,1.73
2022-08-21T14:25:54.063Z,3.53
2022-08-21T14:28:27.884Z,2.85
2022-08-21T14:30:57.979Z,3.22
2022-08-21T14:33:33.213Z,2.65
2022-08-21T14:36:01.911Z,3.03
2022-08-21T14:38:31.206Z,3.33
2022-08-21T14:41:02.203Z,2.42
2022-08-21T14:43:30.518Z,3.58
2022-08-21T14:45:59.126Z,3.75
2022-08-21T14:48:28.765Z,2.75
2022-08-21T14:51:00.328Z,2.20
2022-08-21T14:53:29.260Z,4.10
2022-08-21T14:56:06.628Z,1.73
2022-08-21T14:58:36.847Z,1.52
2022-08-21T15:01:06.647Z,3.03
2022-08-21T15:03:36.296Z,4.80
2022-08-21T15:06:06.627Z,4.45
2022-08-21T15:08:34.710Z,4.53
2022-08-21T15:11:12.415Z,3.03
2022-08-21T15:13:42.589Z,2.60
2022-08-21T15:16:12.834Z,4.45
2022-08-21T15:18:43.819Z,3.70
2022-08-21T15:21:12.367Z,6.05
2022-08-21T15:23:43.786Z,2.33
2022-08-21T15:26:17.126Z,5.20
2022-08-21T15:28:45.361Z,2.55
2022-08-21T15:31:16.067Z,2.70
2022-08-21T15:33:46.002Z,2.33
2022-08-21T15:36:14.139Z,1.58
2022-08-21T15:38:42.227Z,2.72
2022-08-21T15:41:10.151Z,2.65
2022-08-21T15:43:50.199Z,4.18
2022-08-21T15:46:20.569Z,2.92
2022-08-21T15:48:50.200Z,3.40
2022-08-21T15:51:19.233Z,3.15
2022-08-21T15:53:48.432Z,3.60
2022-08-21T15:56:23.459Z,3.63
2022-08-21T15:58:51.938Z,2.50
2022-08-21T16:01:20.545Z,2.00
2022-08-21T16:03:52.470Z,2.53
2022-08-21T16:06:38.262Z,2.60
2022-08-21T16:09:11.620Z,2.13
2022-08-21T16:11:43.696Z,1.73
2022-08-21T16:14:17.453Z,2.92
2022-08-21T16:16:45.541Z,2.08
2022-08-21T16:19:16.113Z,2.30
2022-08-21T16:21:46.196Z,4.05
2022-08-21T16:24:14.906Z,3.05
2022-08-21T16:26:43.175Z,2.45
2022-08-21T16:29:11.769Z,6.82
2022-08-21T16:31:43.417Z,2.60
2022-08-21T16:34:18.059Z,5.32
2022-08-21T16:36:46.461Z,8.30
2022-08-21T16:39:14.716Z,5.15
2022-08-21T16:41:43.256Z,3.28
2022-08-21T16:44:11.402Z,4.13
2022-08-21T16:46:44.132Z,4.53
2022-08-21T16:49:12.271Z,2.55
2022-08-21T16:51:41.822Z,3.08
2022-08-21T16:54:10.329Z,2.35
2022-08-21T16:56:40.433Z,3.05
2022-08-21T16:59:09.527Z,5.38
2022-08-21T17:01:37.846Z,3.75
2022-08-21T17:04:06.457Z,3.17
2022-08-21T17:06:34.541Z,5.57
2022-08-21T17:09:04.477Z,3.72
2022-08-21T17:11:37.210Z,3.42
2022-08-21T17:14:09.854Z,4.78
2022-08-21T17:16:39.755Z,4.13
2022-08-21T17:19:08.335Z,4.68
2022-08-21T17:21:39.181Z,8.40
2022-08-21T17:24:09.814Z,1.85
2022-08-21T17:26:39.390Z,2.22
2022-08-21T17:29:13.943Z,5.45
2022-08-21T17:31:44.256Z,5.60
2022-08-21T17:34:15.639Z,4.70
2022-08-21T17:36:43.960Z,5.68
2022-08-21T17:39:22.455Z,2.38
2022-08-21T17:41:58.035Z,2.53
2022-08-21T17:44:27.079Z,5.63
2022-08-21T17:46:58.033Z,4.10
2022-08-21T17:49:26.684Z,3.80
2022-08-21T17:51:55.039Z,2.63
2022-08-21T17:54:27.737Z,4.35
2022-08-21T17:56:57.343Z,3.38
2022-08-21T17:59:26.040Z,3.35
2022-08-21T18:02:01.341Z,4.80
2022-08-21T18:04:30.252Z,6.55
2022-08-21T18:06:58.852Z,3.08
2022-08-21T18:09:28.717Z,8.52
2022-08-21T18:11:58.235Z,4.70
2022-08-21T18:14:29.930Z,9.45
2022-08-21T18:16:58.477Z,6.25
2022-08-21T18:19:27.050Z,3.35
2022-08-21T18:21:58.823Z,5.20
2022-08-21T18:24:32.200Z,5.80
2022-08-21T18:27:00.560Z,6.82
2022-08-21T18:29:29.652Z,5.80
2022-08-21T18:31:58.386Z,4.57
2022-08-21T18:34:31.870Z,6.20
2022-08-21T18:37:09.994Z,5.22
2022-08-21T18:39:47.145Z,4.88
2022-08-21T20:29:43.025Z,4.78
2022-08-21T20:32:13.499Z,7.65
2022-08-21T20:34:45.119Z,5.38
2022-08-21T20:37:37.138Z,3.60
2022-08-21T20:40:33.063Z,5.50
2022-08-21T20:50:01.746Z,8.82
2022-08-21T20:53:00.281Z,6.40
2022-08-21T20:55:49.737Z,7.20
2022-08-21T20:59:01.393Z,8.30
2022-08-21T21:02:20.370Z,5.85
2022-08-21T21:05:25.423Z,8.68
2022-08-21T21:08:54.577Z,7.63
2022-08-21T21:12:14.724Z,5.80
2022-08-21T21:14:59.078Z,5.30
2022-08-21T21:18:05.140Z,6.18
2022-08-21T21:27:34.940Z,4.80
2022-08-21T21:36:35.460Z,7.30
2022-08-21T21:39:17.433Z,5.47
2022-08-21T21:41:54.332Z,6.47
2022-08-21T21:44:47.790Z,4.00
2022-08-21T21:47:32.256Z,6.93
2022-08-21T21:50:18.912Z,8.63
2022-08-21T21:53:12.359Z,6.15
2022-08-21T21:56:07.793Z,9.27
2022-08-21T21:58:49.001Z,5.85
2022-08-21T22:01:39.448Z,9.43
2022-08-21T22:04:17.119Z,8.05
2022-08-21T22:07:10.805Z,6.72
2022-08-21T22:09:45.824Z,8.95
2022-08-21T22:12:30.578Z,11.00
2022-08-21T22:14:58.984Z,8.43
2022-08-21T22:17:49.023Z,7.32
2022-08-21T22:20:25.110Z,8.45
2022-08-21T22:22:54.582Z,9.20
2022-08-21T22:25:27.630Z,8.25
2022-08-21T22:28:03.754Z,9.88
2022-08-21T22:30:43.066Z,7.78
2022-08-21T22:33:19.953Z,8.93
2022-08-21T22:35:51.642Z,8.23
2022-08-21T22:38:43.291Z,4.70
2022-08-21T22:41:17.257Z,9.45
2022-08-21T22:43:55.256Z,6.35
2022-08-21T22:46:31.489Z,8.68
2022-08-21T22:49:06.271Z,6.38
2022-08-21T22:51:40.791Z,11.88
2022-08-21T22:57:01.892Z,6.18
2022-08-21T22:59:34.909Z,8.88
2022-08-21T23:02:07.866Z,9.05
2022-08-21T23:04:48.916Z,3.78
2022-08-21T23:07:33.986Z,7.93
2022-08-21T23:10:02.895Z,7.13
2022-08-21T23:12:38.806Z,7.15
2022-08-21T23:15:17.941Z,6.38
2022-08-21T23:17:53.541Z,9.80
2022-08-21T23:20:29.762Z,7.20
2022-08-21T23:23:06.986Z,4.03
2022-08-21T23:25:51.648Z,6.88
2022-08-21T23:28:33.030Z,7.65
2022-08-21T23:31:11.731Z,6.15
2022-08-21T23:34:01.028Z,6.03
2022-08-21T23:37:02.338Z,6.50
2022-08-21T23:39:51.504Z,8.05
2022-08-21T23:42:53.295Z,7.95
2022-08-21T23:45:34.544Z,9.77
2022-08-21T23:48:19.850Z,6.55
2022-08-21T23:51:03.832Z,8.35
2022-08-21T23:53:50.569Z,5.47
2022-08-21T23:56:27.697Z,8.70
2022-08-21T23:59:04.968Z,7.63
